Beauraing, Belgium
Current Conditions -  °F | °C
As of 7:25 PM on Monday 26 Jan 2015 (Local Time) from EBFS Reporting Station
Broken Clouds Broken Clouds  
Wind Chill: 36°   Ceiling: 1700
Heat Index: 41°   Visibility: 6mi
Dew Point: 39°   Wind: 8mph
Humidity: 93%   Direction: 330°NNW
Pressure: 30.15"   Gusts: NA
Location:  50.11°N, 4.96°E
Report Text: EBFS 261825Z 33007KT 9999 SCT010 BKN017 BKN026 05/04 Q1021 GRN GRN BECMG WHT
Loading
Personal Weather Stations






























Interactive Weather Map New forecast layout! Learn more

10-Day Weather Forecast

Advertisements
Track Severe Weather on mobile